KTPF

Peter O Knight Airport

Tampa, Florida, USA
METAR KTPF 170015Z AUTO 35006KT 10SM SCT031 SCT110 16/11 A3015 RMK AO2
Observed Flight Rules
Dec-17 @ 00:15 UTC (8 minutes ago) Visual Flight Rules
Wind Visibility Clouds
350° at 6 knots 10 miles
  • Scattered at 3,100' AGL
  • Scattered at 11,000' AGL
Temperatures Readings
Current 16°C / 61°F
Dewpoint 11°C / 52°F
Humidity 72%
Altimeter 30.15" Hg
Pressure 1021 hPa
Elevation 3
METAR KTPF 170015Z AUTO 35006KT 10SM SCT031 SCT110 16/11 A3015 RMK AO2
Observed Flight Rules
Dec-17 @ 00:15 UTC
(8 minutes ago)
VFR
Wind Visibility
350° at 6 knots 10 miles
Clouds
  • Scattered at 3,100' AGL
  • Scattered at 11,000' AGL
Temperature Dewpoint
16°C / 61°F 11°C / 52°F
Humidity Altimeter Pressure
72% 30.15" Hg 1021 hPa